This is the latest recevied weather packets stored in our database for station/object N3TTT-13. If no packets are shown the sender has not sent any weather packets the latest 1 day(s).
| Time | Temp. | Humidity | Pressure | Rain* | Wind** | Luminosity | Snow |
|---|---|---|---|---|---|---|---|
| 1778022821 | 24.44° C | 50% | 1010.7 hPa | 0 mm | 0 m/s | 25 W/m² | - |
| 1778022519 | 24.44° C | 49% | 1010.8 hPa | 0 mm | 0.45 m/s, 283° | 24 W/m² | - |
| 1778022216 | 25° C | 47% | 1010.7 hPa | 0 mm | 0.89 m/s, 153° | 24 W/m² | - |
| 1778021913 | 25° C | 47% | 1010.9 hPa | 0 mm | 0.89 m/s, 290° | 24 W/m² | - |
| 1778021610 | 25° C | 47% | 1010.7 hPa | 0 mm | 0.89 m/s, 317° | 23 W/m² | - |
| 1778021305 | 25° C | 47% | 1010.7 hPa | 0 mm | 0.45 m/s, 228° | 23 W/m² | - |
| 1778021004 | 25° C | 46% | 1010.8 hPa | 0 mm | 0.45 m/s, 223° | 27 W/m² | - |
| 1778020700 | 25.56° C | 46% | 1010.8 hPa | 0 mm | 0.89 m/s, 302° | 34 W/m² | - |
| 1778020397 | 25.56° C | 45% | 1011 hPa | 0 mm | 1.34 m/s, 204° | 38 W/m² | - |
| 1778020093 | 25.56° C | 45% | 1010.6 hPa | 0 mm | 1.34 m/s, 278° | 39 W/m² | - |
| 1778019789 | 25.56° C | 44% | 1010.9 hPa | 0 mm | 0.45 m/s, 299° | 38 W/m² | - |
| 1778019487 | 25.56° C | 45% | 1010.9 hPa | 0 mm | 0.45 m/s, 235° | 32 W/m² | - |
| 1778019183 | 26.11° C | 44% | 1010.7 hPa | 0 mm | 0.89 m/s, 241° | 33 W/m² | - |
| 1778018880 | 26.11° C | 44% | 1010.8 hPa | 0 mm | 0.89 m/s, 259° | 43 W/m² | - |
| 1778018577 | 26.67° C | 44% | 1010.3 hPa | 0 mm | 1.79 m/s, 255° | 53 W/m² | - |
| 1778018275 | 26.67° C | 44% | 1010.7 hPa | 0 mm | 0.45 m/s, 234° | 89 W/m² | - |
| 1778017973 | 26.11° C | 45% | 1010.5 hPa | 0 mm | 0.89 m/s, 269° | 104 W/m² | - |
| 1778017670 | 26.11° C | 44% | 1010.6 hPa | 0 mm | 0 m/s | 72 W/m² | - |
| 1778017368 | 26.11° C | 45% | 1010.6 hPa | 0 mm | 0.45 m/s, 270° | 55 W/m² | - |
| 1778017065 | 26.67° C | 45% | 1010.7 hPa | 0 mm | 0.45 m/s, 270° | 63 W/m² | - |
| 1778016762 | 26.67° C | 43% | 1010.5 hPa | 0 mm | 0.45 m/s, 207° | 75 W/m² | - |
| 1778016458 | 26.67° C | 43% | 1010.4 hPa | 0 mm | 0.89 m/s, 204° | 67 W/m² | - |
| 1778016156 | 27.22° C | 43% | 1010.6 hPa | 0 mm | 1.34 m/s, 238° | 112 W/m² | - |
| 1778015852 | 26.67° C | 43% | 1010.6 hPa | 0 mm | 0.89 m/s, 314° | 124 W/m² | - |
| 1778015550 | 26.67° C | 45% | 1010.5 hPa | 0 mm | 0.89 m/s, 207° | 124 W/m² | - |
* Rain latest hour (hover to see other rain measurements)
** Current wind speed in m/s (hover to see current wind gust speed)